Endurance — WDF8331 — position and weather

sailwx.info

Track history (hours):
 
Tides and Currents Weather Stations Pressure Air Temp Water Temp Dewpoint Dewpoint Depression Visibility Wind Speed Wind Dir Waves Ship Positions

Endurance

Owner: Enterprise Marine Services, LLC, San Antonio, TX. More information available from US FCC via Universal Licensing System and Coast Guard Vessel Documentation Center.

Last reported at 2018-Jun-20 02:30 UTC. Time now 2018-Jun-20 05:23 UTC.
Position N 29°47' W 095°05'.

Length 26 m; draft 2.8 m.

Type: . MMSI: 367493740.

Date/timePositionNaut miles runAvg speedWind from/ knotsBaromVisibWave heightAir tempDewpointWater temp
2018-Jun-20 02:30N 29°47' W 095°05'1 1.2
2018-Jun-20 01:59N 29°47' W 095°04'2 3.6
2018-Jun-20 01:30N 29°46' W 095°06'6 0.2
2018-Jun-18 15:46N 29°42' W 095°01'2 5.6
2018-Jun-18 15:29N 29°42' W 094°59'4 6.9
2018-Jun-18 14:58N 29°38' W 094°58'3 6.1
2018-Jun-18 14:27N 29°35' W 094°56'8 7.7
2018-Jun-18 13:27N 29°29' W 094°52'4 7.9
2018-Jun-18 12:59N 29°26' W 094°50'4 8.3
2018-Jun-18 12:30N 29°22' W 094°48'3 5.3
2018-Jun-18 12:00N 29°20' W 094°51'3 5.4
2018-Jun-18 11:30N 29°18' W 094°53'2 4.4
2018-Jun-18 11:00N 29°17' W 094°55'3 5.6
2018-Jun-18 10:30N 29°17' W 094°58'3 5.3
2018-Jun-18 10:00N 29°15' W 095°00'2 4.9
2018-Jun-18 09:30N 29°13' W 095°02'2 4.9
2018-Jun-18 09:00N 29°12' W 095°04'3 5.1
2018-Jun-18 08:30N 29°10' W 095°07'3 6.0
2018-Jun-18 08:00N 29°09' W 095°10'3 5.2
2018-Jun-18 07:30N 29°07' W 095°12'2 4.5
2018-Jun-18 07:00N 29°05' W 095°13'2 4.4
2018-Jun-18 06:30N 29°02' W 095°14'2 4.4
2018-Jun-18 05:59N 29°00' W 095°15'2 4.3
2018-Jun-18 05:30N 28°59' W 095°16'2 3.4
2018-Jun-18 05:00N 28°58' W 095°17'2 4.0
2018-Jun-18 04:30N 28°56' W 095°19'5 1.5
2018-Jun-18 01:24N 28°54' W 095°24'  
2018-Jun-12 16:43N 28°54' W 095°24'0 0.1
2018-Jun-12 13:47N 28°54' W 095°23'19 1.7
2018-Jun-12 02:36N 29°09' W 095°10'1 6.1
2018-Jun-12 02:30N 29°09' W 095°09'4 7.3
2018-Jun-12 02:00N 29°11' W 095°06'3 5.6
2018-Jun-12 01:30N 29°12' W 095°03'3 6.4
2018-Jun-12 01:00N 29°15' W 095°01'3 6.1
2018-Jun-12 00:30N 29°17' W 094°58'3 6.0
2018-Jun-12 00:00N 29°17' W 094°55'3 6.5
2018-Jun-11 23:30N 29°19' W 094°52'3 6.4
2018-Jun-11 23:00N 29°21' W 094°49'3 5.7
2018-Jun-11 22:30N 29°23' W 094°52'2 2.6
2018-Jun-11 21:53N 29°22' W 094°54'0 0.0
2018-Jun-11 21:28N 29°22' W 094°54'0 0.0
2018-Jun-11 21:00N 29°22' W 094°54'0 0.0
2018-Jun-11 20:30N 29°22' W 094°54'0 0.0
2018-Jun-11 19:58N 29°22' W 094°54'0 0.0
2018-Jun-11 19:28N 29°22' W 094°54'0 0.0
2018-Jun-11 19:00N 29°22' W 094°54'0 0.1
2018-Jun-11 18:30N 29°22' W 094°53'0 0.0
2018-Jun-11 18:00N 29°22' W 094°53'0 0.0
2018-Jun-11 17:30N 29°22' W 094°53'0 0.0
2018-Jun-11 17:00N 29°22' W 094°53'0 0.0
2018-Jun-11 16:29N 29°22' W 094°53'0 0.0
2018-Jun-11 16:00N 29°22' W 094°53'0 0.0
2018-Jun-11 15:30N 29°22' W 094°53'0 0.0
2018-Jun-11 15:00N 29°22' W 094°53'0 0.0
2018-Jun-11 14:30N 29°22' W 094°53'0 0.0
2018-Jun-11 14:00N 29°22' W 094°53'0 0.0
2018-Jun-11 13:29N 29°22' W 094°53'0 0.0
2018-Jun-11 13:00N 29°22' W 094°53'0 0.0
2018-Jun-11 12:30N 29°22' W 094°53'0 0.0
2018-Jun-11 12:00N 29°22' W 094°53'0 0.0
2018-Jun-11 11:30N 29°22' W 094°53'0 0.0
2018-Jun-11 10:58N 29°22' W 094°53'0 0.0
2018-Jun-11 10:29N 29°22' W 094°53'0 0.0
2018-Jun-11 10:00N 29°22' W 094°53'0 0.0
2018-Jun-11 09:30N 29°22' W 094°53'0 0.0
2018-Jun-11 08:59N 29°22' W 094°53'0 0.0
2018-Jun-11 08:30N 29°22' W 094°53'0 0.0
2018-Jun-11 08:00N 29°22' W 094°53'0 0.0
2018-Jun-11 07:30N 29°22' W 094°53'0 0.0
2018-Jun-11 06:57N 29°22' W 094°53'0 0.0
2018-Jun-11 06:25N 29°22' W 094°53'0 0.0
2018-Jun-11 06:00N 29°22' W 094°53'0 0.0
2018-Jun-11 05:30N 29°22' W 094°53'0 0.0
2018-Jun-11 05:00N 29°22' W 094°53'0 0.0
2018-Jun-11 04:30N 29°22' W 094°53'0 0.0
2018-Jun-11 04:00N 29°22' W 094°53'0 0.0
2018-Jun-11 03:26N 29°22' W 094°53'0 0.0
2018-Jun-11 02:59N 29°22' W 094°53'0 0.0
2018-Jun-11 00:12N 29°22' W 094°53'0 0.0
2018-Jun-11 00:00N 29°22' W 094°53'0 0.0
2018-Jun-10 23:30N 29°22' W 094°53'1 1.1
2018-Jun-10 23:00N 29°23' W 094°53'2 3.4
2018-Jun-10 22:28N 29°22' W 094°51'2 5.2
2018-Jun-10 22:00N 29°22' W 094°49'3 5.6
2018-Jun-10 21:30N 29°23' W 094°46'2 3.1
2018-Jun-10 21:00N 29°24' W 094°45'0 0.4
2018-Jun-10 20:28N 29°24' W 094°44'0 0.0
2018-Jun-10 19:55N 29°24' W 094°44'0 0.0
2018-Jun-10 19:19N 29°24' W 094°44'0 0.0
2018-Jun-10 18:59N 29°24' W 094°44'0 0.0
2018-Jun-10 18:29N 29°24' W 094°44'0 0.0
2018-Jun-10 17:57N 29°24' W 094°44'0 0.0
2018-Jun-10 16:52N 29°24' W 094°44'0 0.0
2018-Jun-10 16:20N 29°24' W 094°44'0 0.0
2018-Jun-10 15:51N 29°24' W 094°44'0 0.0
2018-Jun-10 15:22N 29°24' W 094°44'0 0.0
2018-Jun-10 14:59N 29°24' W 094°44'0 0.0
2018-Jun-10 14:26N 29°24' W 094°44'0 0.0
2018-Jun-10 13:24N 29°24' W 094°44'0 0.0
2018-Jun-10 12:27N 29°24' W 094°44'0 0.0
2018-Jun-10 11:57N 29°24' W 094°44'0 0.0
2018-Jun-10 11:27N 29°24' W 094°44'0 0.0
2018-Jun-10 10:59N 29°24' W 094°44'0 0.0
2018-Jun-10 10:30N 29°24' W 094°44'0 0.0
2018-Jun-10 09:50N 29°24' W 094°44'0 0.0
2018-Jun-10 09:26N 29°24' W 094°44'0 0.0
2018-Jun-10 09:00N 29°24' W 094°44'0 0.0
2018-Jun-10 08:30N 29°24' W 094°44'0 0.0
2018-Jun-10 07:55N 29°24' W 094°44'0 0.0
2018-Jun-10 07:29N 29°24' W 094°44'0 0.0
2018-Jun-10 06:53N 29°24' W 094°44'0 0.0
2018-Jun-10 04:42N 29°24' W 094°44'0 0.0
2018-Jun-10 04:27N 29°24' W 094°44'  
Track history (hours):
 
Tides and Currents Weather Stations Pressure Air Temp Water Temp Dewpoint Dewpoint Depression Visibility Wind Speed Wind Dir Waves Ship Positions

Endurance

Owner: Enterprise Marine Services, LLC, San Antonio, TX. More information available from US FCC via Universal Licensing System and Coast Guard Vessel Documentation Center.

Last reported at 2018-Jun-20 02:30 UTC. Time now 2018-Jun-20 05:23 UTC.
Position N 29°47' W 095°05'.

Length 26 m; draft 2.8 m.

Type: . MMSI: 367493740.

Date/timePositionNaut miles runAvg speedWind from/ knotsBaromVisibWave heightAir tempDewpointWater temp
2018-Jun-20 02:30N 29°47' W 095°05'1 1.2
2018-Jun-20 01:59N 29°47' W 095°04'2 3.6
2018-Jun-20 01:30N 29°46' W 095°06'6 0.2
2018-Jun-18 15:46N 29°42' W 095°01'2 5.6
2018-Jun-18 15:29N 29°42' W 094°59'4 6.9
2018-Jun-18 14:58N 29°38' W 094°58'3 6.1
2018-Jun-18 14:27N 29°35' W 094°56'8 7.7
2018-Jun-18 13:27N 29°29' W 094°52'4 7.9
2018-Jun-18 12:59N 29°26' W 094°50'4 8.3
2018-Jun-18 12:30N 29°22' W 094°48'3 5.3
2018-Jun-18 12:00N 29°20' W 094°51'3 5.4
2018-Jun-18 11:30N 29°18' W 094°53'2 4.4
2018-Jun-18 11:00N 29°17' W 094°55'3 5.6
2018-Jun-18 10:30N 29°17' W 094°58'3 5.3
2018-Jun-18 10:00N 29°15' W 095°00'2 4.9
2018-Jun-18 09:30N 29°13' W 095°02'2 4.9
2018-Jun-18 09:00N 29°12' W 095°04'3 5.1
2018-Jun-18 08:30N 29°10' W 095°07'3 6.0
2018-Jun-18 08:00N 29°09' W 095°10'3 5.2
2018-Jun-18 07:30N 29°07' W 095°12'2 4.5
2018-Jun-18 07:00N 29°05' W 095°13'2 4.4
2018-Jun-18 06:30N 29°02' W 095°14'2 4.4
2018-Jun-18 05:59N 29°00' W 095°15'2 4.3
2018-Jun-18 05:30N 28°59' W 095°16'2 3.4
2018-Jun-18 05:00N 28°58' W 095°17'2 4.0
2018-Jun-18 04:30N 28°56' W 095°19'5 1.5
2018-Jun-18 01:24N 28°54' W 095°24'  
2018-Jun-12 16:43N 28°54' W 095°24'0 0.1
2018-Jun-12 13:47N 28°54' W 095°23'19 1.7
2018-Jun-12 02:36N 29°09' W 095°10'1 6.1
2018-Jun-12 02:30N 29°09' W 095°09'4 7.3
2018-Jun-12 02:00N 29°11' W 095°06'3 5.6
2018-Jun-12 01:30N 29°12' W 095°03'3 6.4
2018-Jun-12 01:00N 29°15' W 095°01'3 6.1
2018-Jun-12 00:30N 29°17' W 094°58'3 6.0
2018-Jun-12 00:00N 29°17' W 094°55'3 6.5
2018-Jun-11 23:30N 29°19' W 094°52'3 6.4
2018-Jun-11 23:00N 29°21' W 094°49'3 5.7
2018-Jun-11 22:30N 29°23' W 094°52'2 2.6
2018-Jun-11 21:53N 29°22' W 094°54'0 0.0
2018-Jun-11 21:28N 29°22' W 094°54'0 0.0
2018-Jun-11 21:00N 29°22' W 094°54'0 0.0
2018-Jun-11 20:30N 29°22' W 094°54'0 0.0
2018-Jun-11 19:58N 29°22' W 094°54'0 0.0
2018-Jun-11 19:28N 29°22' W 094°54'0 0.0
2018-Jun-11 19:00N 29°22' W 094°54'0 0.1
2018-Jun-11 18:30N 29°22' W 094°53'0 0.0
2018-Jun-11 18:00N 29°22' W 094°53'0 0.0
2018-Jun-11 17:30N 29°22' W 094°53'0 0.0
2018-Jun-11 17:00N 29°22' W 094°53'0 0.0
2018-Jun-11 16:29N 29°22' W 094°53'0 0.0
2018-Jun-11 16:00N 29°22' W 094°53'0 0.0
2018-Jun-11 15:30N 29°22' W 094°53'0 0.0
2018-Jun-11 15:00N 29°22' W 094°53'0 0.0
2018-Jun-11 14:30N 29°22' W 094°53'0 0.0
2018-Jun-11 14:00N 29°22' W 094°53'0 0.0
2018-Jun-11 13:29N 29°22' W 094°53'0 0.0
2018-Jun-11 13:00N 29°22' W 094°53'0 0.0
2018-Jun-11 12:30N 29°22' W 094°53'0 0.0
2018-Jun-11 12:00N 29°22' W 094°53'0 0.0
2018-Jun-11 11:30N 29°22' W 094°53'0 0.0
2018-Jun-11 10:58N 29°22' W 094°53'0 0.0
2018-Jun-11 10:29N 29°22' W 094°53'0 0.0
2018-Jun-11 10:00N 29°22' W 094°53'0 0.0
2018-Jun-11 09:30N 29°22' W 094°53'0 0.0
2018-Jun-11 08:59N 29°22' W 094°53'0 0.0
2018-Jun-11 08:30N 29°22' W 094°53'0 0.0
2018-Jun-11 08:00N 29°22' W 094°53'0 0.0
2018-Jun-11 07:30N 29°22' W 094°53'0 0.0
2018-Jun-11 06:57N 29°22' W 094°53'0 0.0
2018-Jun-11 06:25N 29°22' W 094°53'0 0.0
2018-Jun-11 06:00N 29°22' W 094°53'0 0.0
2018-Jun-11 05:30N 29°22' W 094°53'0 0.0
2018-Jun-11 05:00N 29°22' W 094°53'0 0.0
2018-Jun-11 04:30N 29°22' W 094°53'0 0.0
2018-Jun-11 04:00N 29°22' W 094°53'0 0.0
2018-Jun-11 03:26N 29°22' W 094°53'0 0.0
2018-Jun-11 02:59N 29°22' W 094°53'0 0.0
2018-Jun-11 00:12N 29°22' W 094°53'0 0.0
2018-Jun-11 00:00N 29°22' W 094°53'0 0.0
2018-Jun-10 23:30N 29°22' W 094°53'1 1.1
2018-Jun-10 23:00N 29°23' W 094°53'2 3.4
2018-Jun-10 22:28N 29°22' W 094°51'2 5.2
2018-Jun-10 22:00N 29°22' W 094°49'3 5.6
2018-Jun-10 21:30N 29°23' W 094°46'2 3.1
2018-Jun-10 21:00N 29°24' W 094°45'0 0.4
2018-Jun-10 20:28N 29°24' W 094°44'0 0.0
2018-Jun-10 19:55N 29°24' W 094°44'0 0.0
2018-Jun-10 19:19N 29°24' W 094°44'0 0.0
2018-Jun-10 18:59N 29°24' W 094°44'0 0.0
2018-Jun-10 18:29N 29°24' W 094°44'0 0.0
2018-Jun-10 17:57N 29°24' W 094°44'0 0.0
2018-Jun-10 16:52N 29°24' W 094°44'0 0.0
2018-Jun-10 16:20N 29°24' W 094°44'0 0.0
2018-Jun-10 15:51N 29°24' W 094°44'0 0.0
2018-Jun-10 15:22N 29°24' W 094°44'0 0.0
2018-Jun-10 14:59N 29°24' W 094°44'0 0.0
2018-Jun-10 14:26N 29°24' W 094°44'0 0.0
2018-Jun-10 13:24N 29°24' W 094°44'0 0.0
2018-Jun-10 12:27N 29°24' W 094°44'0 0.0
2018-Jun-10 11:57N 29°24' W 094°44'0 0.0
2018-Jun-10 11:27N 29°24' W 094°44'0 0.0
2018-Jun-10 10:59N 29°24' W 094°44'0 0.0
2018-Jun-10 10:30N 29°24' W 094°44'0 0.0
2018-Jun-10 09:50N 29°24' W 094°44'0 0.0
2018-Jun-10 09:26N 29°24' W 094°44'0 0.0
2018-Jun-10 09:00N 29°24' W 094°44'0 0.0
2018-Jun-10 08:30N 29°24' W 094°44'0 0.0
2018-Jun-10 07:55N 29°24' W 094°44'0 0.0
2018-Jun-10 07:29N 29°24' W 094°44'0 0.0
2018-Jun-10 06:53N 29°24' W 094°44'0 0.0
2018-Jun-10 04:42N 29°24' W 094°44'0 0.0
2018-Jun-10 04:27N 29°24' W 094°44'  

Dump ship's entire track history